Data for 10/07/2005

Time Sea-Level Adjusted Pressure Absolute Pressure Temperature Relative Humidity Dew Point   
(mb) (inHg) (mb) (inHg) (C) (F) (%) (C) (F)
00:05 1015 29.97 845 24.95 7.1 44.8 58 -0.5 31.1
00:10 1015 29.97 845 24.95 6.9 44.4 59 -0.4 31.2
00:15 1015 29.97 845 24.95 6.6 43.9 61 -0.5 31.2
00:20 1015 29.97 844 24.92 6.4 43.5 61 -0.6 31
00:25 1015 29.97 844 24.92 6.4 43.4 61 -0.6 30.9
00:30 1015 29.97 844 24.92 6.5 43.7 58 -1.1 30.1
00:35 1015 29.97 844 24.92 6.7 44.1 59 -0.8 30.6
00:40 1015 29.97 844 24.92 6.7 44 57 -1.3 29.6
00:45 1015 29.97 844 24.92 6.8 44.2 59 -0.7 30.7
00:50 1015 29.97 844 24.92 6.6 43.9 58 -1 30.2
00:55 1015 29.97 844 24.92 6.8 44.3 55 -1.5 29.3
01:00 1015 29.97 844 24.92 7 44.5 55 -1.4 29.6
01:05 1015 29.97 844 24.92 6.9 44.4 57 -1 30.2
01:10 1015 29.97 844 24.92 7.1 44.8 53 -1.8 28.8
01:15 1015 29.97 844 24.92 7.2 44.9 55 -1.2 29.9
01:20 1015 29.97 844 24.92 6.6 44 58 -1 30.2
01:25 1015 29.97 844 24.92 6.3 43.4 59 -1.1 30
01:30 1015 29.97 844 24.92 6.2 43.2 61 -0.8 30.5
01:35 1015 29.97 844 24.92 6.1 43 59 -1.3 29.7
01:40 1015 29.97 844 24.92 6.2 43.2 59 -1.3 29.7
01:45 1015 29.97 844 24.92 6.2 43.1 60 -1 30.1
01:50 1015 29.97 844 24.92 5.8 42.5 62 -0.8 30.6
01:55 1015 29.97 844 24.92 5.2 41.4 65 -0.9 30.4
02:00 1015 29.97 844 24.92 5.2 41.4 65 -0.8 30.5
02:05 1015 29.97 844 24.92 5 41 66 -0.8 30.6
02:10 1015 29.97 844 24.92 5.1 41.2 64 -1.1 30
02:15 1015 29.97 844 24.92 5.1 41.2 66 -0.7 30.8
02:20 1015 29.97 844 24.92 4.9 40.8 68 -0.5 31.2
02:25 1015 29.97 844 24.92 4.8 40.7 68 -0.5 31.2
02:30 1015 29.97 844 24.92 5.2 41.3 66 -0.6 31
02:35 1015 29.97 844 24.92 5.4 41.7 62 -1.2 29.9
02:40 1015 29.97 844 24.92 5.6 42.1 63 -0.8 30.6
02:45 1015 29.97 844 24.92 5 41 67 -0.6 31
02:50 1015 29.97 844 24.92 4.7 40.5 65 -1.2 29.8
02:55 1015 29.97 844 24.92 5.1 41.1 64 -1.1 30
03:00 1015 29.97 844 24.92 5.1 41.2 62 -1.6 29.2
03:05 1015 29.97 844 24.92 5.6 42 61 -1.3 29.6
03:10 1014 29.94 844 24.92 5.2 41.3 64 -1 30.2
03:15 1014 29.94 844 24.92 4.7 40.5 64 -1.5 29.3
03:20 1014 29.94 843 24.89 5 41 63 -1.5 29.2
03:25 1014 29.94 843 24.89 5.3 41.5 62 -1.5 29.3
03:30 1014 29.94 843 24.89 5.3 41.5 62 -1.3 29.6
03:35 1014 29.94 843 24.89 5 41 61 -1.9 28.6
03:40 1014 29.94 843 24.89 5.1 41.1 62 -1.5 29.3
03:45 1014 29.94 843 24.89 5.2 41.3 62 -1.6 29.1
03:50 1014 29.94 843 24.89 5.1 41.2 61 -1.8 28.7
03:55 1014 29.94 843 24.89 5.2 41.3 60 -2 28.4
04:00 1014 29.94 843 24.89 5.3 41.6 60 -1.9 28.5
04:05 1014 29.94 843 24.89 5.3 41.6 59 -2 28.4
04:10 1014 29.94 843 24.89 5.3 41.6 59 -2.1 28.3
04:15 1014 29.94 843 24.89 5.3 41.5 59 -2.1 28.3
04:20 1014 29.94 843 24.89 5.5 41.9 58 -2.1 28.2
04:25 1014 29.94 843 24.89 5.4 41.7 61 -1.4 29.5
04:30 1014 29.94 843 24.89 4.7 40.4 66 -1.2 29.8
04:35 1014 29.94 843 24.89 4.1 39.4 68 -1.2 29.8
04:40 1014 29.94 843 24.89 3.9 39.1 69 -1.3 29.7
04:45 1014 29.94 843 24.89 3.9 39 69 -1.4 29.6
04:50 1014 29.94 843 24.89 3.6 38.6 71 -1.2 29.8
04:55 1014 29.94 843 24.89 3.5 38.3 71 -1.3 29.6
05:00 1014 29.94 843 24.89 3.6 38.5 70 -1.3 29.7
05:05 1014 29.94 843 24.89 4.2 39.5 66 -1.6 29.1
05:10 1014 29.94 843 24.89 4.9 40.8 65 -1.2 29.8
05:15 1014 29.94 843 24.89 5.2 41.4 64 -0.9 30.3
05:20 1014 29.94 843 24.89 4.5 40 67 -1 30.1
05:25 1014 29.94 843 24.89 4.3 39.8 66 -1.5 29.3
05:30 1014 29.94 843 24.89 4.2 39.6 65 -1.8 28.7
05:35 1014 29.94 843 24.89 4.4 40 66 -1.4 29.5
05:40 1014 29.94 843 24.89 3.9 39 67 -1.6 29.1
05:45 1014 29.94 843 24.89 3.7 38.7 68 -1.7 28.9
05:50 1014 29.94 843 24.89 4.1 39.3 64 -2.1 28.1
05:55 1014 29.94 843 24.89 4.6 40.3 62 -2.1 28.2
06:00 1014 29.94 843 24.89 4.9 40.9 61 -1.9 28.7
06:05 1014 29.94 843 24.89 5 41 61 -1.8 28.7
06:10 1014 29.94 843 24.89 4.9 40.8 63 -1.7 29
06:15 1014 29.94 843 24.89 4.4 39.9 66 -1.4 29.5
06:20 1014 29.94 843 24.89 4.1 39.3 66 -1.6 29
06:25 1014 29.94 843 24.89 4.3 39.7 64 -1.9 28.6
06:30 1014 29.94 843 24.89 4.5 40.1 63 -1.9 28.6
06:35 1014 29.94 843 24.89 4.5 40.1 63 -1.9 28.7
06:40 1014 29.94 843 24.89 4.5 40.1 64 -1.7 28.9
06:45 1014 29.94 843 24.89 4.7 40.4 61 -2.2 28
06:50 1014 29.94 843 24.89 4.6 40.2 64 -1.6 29.1
06:55 1014 29.94 843 24.89 3.9 39 67 -1.7 28.9
07:00 1014 29.94 843 24.89 3.7 38.6 68 -1.7 28.9
07:05 1014 29.94 843 24.89 3.5 38.4 68 -1.8 28.7
07:10 1014 29.94 843 24.89 3.7 38.7 67 -1.8 28.8
07:15 1014 29.94 843 24.89 3.8 38.9 67 -1.7 29
07:20 1014 29.94 843 24.89 3.9 39.1 65 -2.1 28.3
07:25 1014 29.94 843 24.89 4.2 39.6 64 -1.9 28.6
07:30 1014 29.94 843 24.89 4.1 39.3 67 -1.6 29.1
07:35 1014 29.94 843 24.89 4.2 39.5 67 -1.5 29.3
07:40 1014 29.94 843 24.89 3.9 39 68 -1.5 29.4
07:45 1014 29.94 843 24.89 4 39.2 64 -2.1 28.2
07:50 1014 29.94 843 24.89 4.5 40.1 64 -1.6 29.1
07:55 1014 29.94 843 24.89 4.9 40.8 64 -1.3 29.7
08:00 1014 29.94 843 24.89 5 41.1 60 -2 28.3
08:05 1014 29.94 843 24.89 5.4 41.7 62 -1.2 29.9
08:10 1014 29.94 843 24.89 5.2 41.4 63 -1.3 29.7
08:15 1014 29.94 843 24.89 5.3 41.6 62 -1.3 29.6
08:20 1013 29.91 843 24.89 5.6 42.1 61 -1.4 29.5
08:25 1013 29.91 843 24.89 6 42.8 58 -1.6 29.1
08:30 1013 29.91 843 24.89 6.4 43.5 58 -1.2 29.8
08:35 1013 29.91 843 24.89 6.5 43.7 59 -0.9 30.4
08:40 1014 29.94 843 24.89 6.7 44 59 -0.8 30.6
08:45 1014 29.94 843 24.89 6.8 44.3 57 -1 30.3
08:50 1014 29.94 843 24.89 6.9 44.4 57 -1.1 30
08:55 1014 29.94 843 24.89 7.3 45.1 56 -0.9 30.4
09:00 1014 29.94 843 24.89 7.3 45.2 56 -0.9 30.5
09:05 1014 29.94 843 24.89 7.4 45.3 54 -1.2 29.9
09:10 1014 29.94 843 24.89 7.9 46.3 55 -0.6 30.9
09:15 1014 29.94 843 24.89 8.2 46.7 53 -0.7 30.7
09:20 1014 29.94 843 24.89 8.5 47.3 51 -1 30.3
09:25 1014 29.94 843 24.89 9.1 48.3 49 -1.2 29.9
09:30 1013 29.91 843 24.89 9.5 49 47 -1.2 29.9
09:35 1013 29.91 843 24.89 9.9 49.8 46 -1.1 30.1
09:40 1013 29.91 842 24.86 10.2 50.4 45 -1.2 29.8
09:45 1013 29.91 842 24.86 10.6 51 45 -0.9 30.5
09:50 1013 29.91 842 24.86 11.4 52.6 42 -1.1 29.9
09:55 1013 29.91 842 24.86 11.6 52.9 41 -1 30.3
10:00 1013 29.91 842 24.86 12.3 54.1 37 -2.1 28.2
10:05 1013 29.91 842 24.86 12.9 55.2 38 -0.8 30.5
10:10 1013 29.91 842 24.86 13.2 55.7 38 -0.9 30.3
10:15 1013 29.91 842 24.86 13.2 55.8 38 -0.8 30.6
10:20 1013 29.91 842 24.86 13 55.4 37 -1.3 29.6
10:25 1013 29.91 842 24.86 13.1 55.6 37 -1.3 29.6
10:30 1013 29.91 842 24.86 13.1 55.6 34 -2.2 28.1
10:35 1013 29.91 842 24.86 13.3 56 33 -2.5 27.5
10:40 1013 29.91 842 24.86 14.6 58.2 32 -2 28.4
10:45 1013 29.91 842 24.86 14.4 57.9 33 -1.5 29.3
10:50 1013 29.91 842 24.86 14.7 58.4 31 -2 28.4
10:55 1013 29.91 842 24.86 14.4 57.9 33 -1.6 29
11:00 1013 29.91 842 24.86 14.6 58.4 34 -1 30.3
11:05 1013 29.91 842 24.86 15 59.1 32 -1.4 29.4
11:10 1013 29.91 842 24.86 14.3 57.7 34 -1.1 29.9
11:15 1013 29.91 842 24.86 14 57.1 35 -1.2 29.8
11:20 1013 29.91 842 24.86 13.8 56.9 35 -1.3 29.6
11:25 1013 29.91 842 24.86 14.1 57.3 34 -1.5 29.4
11:30 1013 29.91 842 24.86 14.7 58.5 33 -1.1 30
11:35 1013 29.91 842 24.86 16 60.8 33 -0.4 31.4
11:40 1013 29.91 842 24.86 15.8 60.5 33 -0.2 31.6
11:45 1013 29.91 842 24.86 16.2 61.2 32 -0.2 31.7
11:50 1013 29.91 842 24.86 16.9 62.5 31 -0.2 31.6
11:55 1013 29.91 842 24.86 16.9 62.4 32 0.2 32.3
12:00 1013 29.91 842 24.86 16.9 62.5 32 0.4 32.7
12:05 1013 29.91 842 24.86 17.2 63 33 0.8 33.4
12:10 1013 29.91 842 24.86 17.6 63.6 34 1.5 34.7
12:15 1012 29.88 842 24.86 17.3 63.2 31 0.1 32.2
12:20 1012 29.88 842 24.86 17.1 62.8 32 0.5 32.9
12:25 1012 29.88 842 24.86 16.8 62.3 34 0.8 33.5
12:30 1012 29.88 842 24.86 16.3 61.3 35 0.7 33.3
12:35 1012 29.88 841 24.83 16.4 61.6 32 0 32
12:40 1012 29.88 841 24.83 17 62.6 33 0.8 33.5
12:45 1012 29.88 841 24.83 17.3 63.2 30 -0.2 31.7
12:50 1012 29.88 841 24.83 17.3 63.2 31 0.1 32.3
12:55 1012 29.88 841 24.83 17.4 63.4 30 -0.3 31.4
13:00 1012 29.88 841 24.83 18.1 64.5 29 -0.2 31.7
13:05 1012 29.88 841 24.83 17.9 64.3 29 -0.4 31.3
13:10 1012 29.88 841 24.83 17.4 63.3 29 -0.8 30.5
13:15 1012 29.88 841 24.83 17.5 63.6 29 -0.7 30.8
13:20 1012 29.88 841 24.83 17.3 63.1 29 -0.7 30.7
13:25 1012 29.88 841 24.83 16.7 62.1 30 -1 30.2
13:30 1012 29.88 841 24.83 16.8 62.3 30 -0.9 30.5
13:35 1012 29.88 841 24.83 17.3 63.2 29 -0.9 30.3
13:40 1012 29.88 841 24.83 17.2 62.9 29 -1 30.2
13:45 1012 29.88 841 24.83 18 64.4 28 -0.6 30.9
13:50 1011 29.85 841 24.83 18.4 65.2 30 0.7 33.3
13:55 1011 29.85 841 24.83 18.9 66 28 -0.1 31.8
14:00 1011 29.85 841 24.83 18.7 65.7 29 0.6 33
14:05 1011 29.85 841 24.83 18.7 65.6 26 -1.2 29.8
14:10 1011 29.85 841 24.83 18.9 65.9 27 -0.3 31.5
14:15 1011 29.85 841 24.83 19 66.1 27 -0.3 31.5
14:20 1011 29.85 840 24.81 18.8 65.9 26 -1.2 29.9
14:25 1011 29.85 840 24.81 18.4 65 28 -0.4 31.2
14:30 1011 29.85 840 24.81 18.4 65.1 26 -1.1 30
14:35 1011 29.85 840 24.81 17.9 64.2 26 -1.6 29
14:40 1011 29.85 840 24.81 18.8 65.9 25 -1.6 29.1
14:45 1011 29.85 840 24.81 19 66.1 25 -1.4 29.4
14:50 1011 29.85 840 24.81 19.1 66.4 24 -1.9 28.6
14:55 1011 29.85 840 24.81 19.4 67 23 -1.9 28.5
15:00 1011 29.85 840 24.81 19.3 66.8 23 -2.2 28
15:05 1011 29.85 840 24.81 19.4 66.9 23 -2.2 28.1
15:10 1011 29.85 840 24.81 19.4 67 24 -1.8 28.8
15:15 1011 29.85 840 24.81 19.6 67.2 23 -2.2 28
15:20 1011 29.85 840 24.81 19.8 67.7 22 -2.3 27.8
15:25 1011 29.85 840 24.81 19.7 67.4 22 -2.7 27.1
15:30 1011 29.85 840 24.81 19.4 67 22 -2.6 27.3
15:35 1011 29.85 840 24.81 20 67.9 22 -2.2 28
15:40 1011 29.85 840 24.81 20.3 68.5 22 -2.2 28
15:45 1011 29.85 840 24.81 20.8 69.5 21 -2.2 28.1
15:50 1011 29.85 840 24.81 21.2 70.1 21 -1.7 29
15:55 1010 29.83 840 24.81 20.6 69.1 21 -2.5 27.4
16:00 1010 29.83 840 24.81 20.1 68.3 22 -2.2 28
16:05 1010 29.83 840 24.81 20.1 68.1 22 -2.2 28
16:10 1010 29.83 840 24.81 19.6 67.3 22 -2.6 27.4
16:15 1010 29.83 840 24.81 19.5 67 23 -2.3 27.9
16:20 1010 29.83 840 24.81 19.4 66.8 23 -2.1 28.2
16:25 1010 29.83 840 24.81 19.6 67.3 23 -2 28.5
16:30 1010 29.83 840 24.81 19.6 67.3 23 -1.7 28.9
16:35 1010 29.83 839 24.78 19.6 67.3 23 -2.2 28.1
16:40 1010 29.83 839 24.78 19.7 67.4 22 -2.5 27.5
16:45 1010 29.83 839 24.78 19.4 66.9 22 -2.8 27
16:50 1010 29.83 839 24.78 18.9 66 22 -3 26.7
16:55 1010 29.83 839 24.78 18.6 65.4 23 -2.9 26.8
17:00 1010 29.83 839 24.78 18.6 65.5 23 -2.9 26.7
17:05 1010 29.83 839 24.78 18.5 65.3 23 -2.8 26.9
17:10 1010 29.83 839 24.78 18.3 65 24 -2.7 27.2
17:15 1010 29.83 839 24.78 18.3 64.9 24 -2.5 27.4
17:20 1010 29.83 839 24.78 18.1 64.6 24 -2.8 26.9
17:25 1010 29.83 839 24.78 18.1 64.6 24 -2.7 27.2
17:30 1010 29.83 839 24.78 18 64.4 25 -2 28.5
17:35 1010 29.83 839 24.78 17.7 63.9 27 -1.5 29.3
17:40 1010 29.83 839 24.78 17.6 63.6 26 -1.8 28.7
17:45 1010 29.83 839 24.78 17.2 62.9 30 -0.6 30.9
17:50 1010 29.83 839 24.78 16.8 62.2 29 -1.2 29.9
17:55 1010 29.83 839 24.78 17 62.6 27 -1.9 28.5
18:00 1010 29.83 839 24.78 17.5 63.4 27 -1.5 29.3
18:05 1010 29.83 839 24.78 17.4 63.3 30 -0.3 31.5
18:10 1010 29.83 839 24.78 17.1 62.8 32 0.5 32.9
18:15 1010 29.83 839 24.78 16.8 62.3 35 1.4 34.4
18:20 1010 29.83 839 24.78 16.4 61.6 37 2 35.6
18:25 1010 29.83 839 24.78 16.4 61.5 39 2.5 36.5
18:30 1010 29.83 839 24.78 16.3 61.4 39 2.3 36.2
18:35 1010 29.83 839 24.78 16.3 61.3 41 3.3 37.9
18:40 1010 29.83 839 24.78 15.2 59.3 45 3.4 38.1
18:45 1010 29.83 839 24.78 14.4 57.8 46 2.8 37.1
18:50 1010 29.83 839 24.78 13.8 56.8 48 3 37.5
18:55 1010 29.83 839 24.78 13.4 56.2 48 2.7 36.8
19:00 1010 29.83 839 24.78 13 55.3 50 2.7 36.9
19:05 1010 29.83 839 24.78 12.6 54.6 51 2.7 36.9
19:10 1010 29.83 839 24.78 12 53.6 48 1.3 34.4
19:15 1010 29.83 839 24.78 12 53.6 47 1 33.8
19:20 1010 29.83 839 24.78 12.1 53.7 47 1.1 34
19:25 1010 29.83 839 24.78 12.1 53.7 48 1.4 34.6
19:30 1010 29.83 839 24.78 11.7 53 49 1.4 34.4
19:35 1010 29.83 839 24.78 12.2 54 44 0.3 32.5
19:40 1010 29.83 839 24.78 12 53.5 47 0.9 33.7
19:45 1010 29.83 839 24.78 11.3 52.3 50 1.2 34.2
19:50 1010 29.83 839 24.78 10.7 51.3 52 1.2 34.1
19:55 1010 29.83 839 24.78 10.6 51 50 0.7 33.3
20:00 1010 29.83 839 24.78 10.7 51.3 48 0.4 32.6
20:05 1010 29.83 839 24.78 10.9 51.5 49 0.7 33.3
20:10 1010 29.83 840 24.81 11 51.8 46 -0 32
20:15 1010 29.83 840 24.81 11.5 52.6 44 -0.4 31.2
20:20 1010 29.83 840 24.81 12.2 54 39 -1.2 29.9
20:25 1010 29.83 840 24.81 12.9 55.3 35 -2.1 28.1
20:30 1010 29.83 840 24.81 13.4 56.2 35 -1.7 29
20:35 1010 29.83 840 24.81 13.5 56.3 38 -0.4 31.3
20:40 1011 29.85 840 24.81 13 55.3 42 0.5 32.9
20:45 1011 29.85 840 24.81 12.4 54.3 43 0.3 32.6
20:50 1011 29.85 840 24.81 12.2 54 43 0 32
20:55 1011 29.85 840 24.81 12.4 54.2 43 0.1 32.1
21:00 1011 29.85 840 24.81 12.3 54.1 44 0.4 32.8
21:05 1011 29.85 840 24.81 12.1 53.7 46 0.9 33.6
21:10 1011 29.85 840 24.81 11.7 53.1 46 0.6 33
21:15 1011 29.85 840 24.81 11.5 52.7 47 0.7 33.3
21:20 1011 29.85 840 24.81 11.1 52 49 0.9 33.6
21:25 1011 29.85 840 24.81 9.8 49.6 54 1 33.7
21:30 1011 29.85 840 24.81 9.4 49 54 0.7 33.3
21:35 1011 29.85 840 24.81 9.2 48.6 56 0.8 33.5
21:40 1011 29.85 840 24.81 8.9 48.1 57 0.9 33.6
21:45 1011 29.85 840 24.81 8.6 47.4 58 0.8 33.5
21:50 1011 29.85 840 24.81 8.5 47.3 59 0.9 33.6
21:55 1011 29.85 840 24.81 8.6 47.5 58 0.9 33.6
22:00 1011 29.85 840 24.81 8.3 46.9 60 1.1 33.9
22:05 1011 29.85 840 24.81 8 46.5 61 0.9 33.7
22:10 1011 29.85 840 24.81 8 46.4 61 0.9 33.7
22:15 1011 29.85 840 24.81 8.1 46.6 61 1 33.9
22:20 1011 29.85 840 24.81 8.1 46.5 60 0.9 33.6
22:25 1011 29.85 840 24.81 8.1 46.5 61 0.9 33.7
22:30 1011 29.85 841 24.83 8 46.3 62 1.1 33.9
22:35 1011 29.85 841 24.83 7.7 45.8 63 1.1 33.9
22:40 1011 29.85 841 24.83 7.6 45.8 63 1.1 33.9
22:45 1011 29.85 841 24.83 7.8 46 61 0.8 33.4
22:50 1011 29.85 841 24.83 7.9 46.2 64 1.4 34.6
22:55 1012 29.88 841 24.83 7.8 46.1 62 1 33.9
23:00 1012 29.88 841 24.83 8 46.3 61 0.9 33.7
23:05 1012 29.88 841 24.83 8.2 46.7 60 0.9 33.6
23:10 1011 29.85 841 24.83 8.3 46.9 61 1.1 34
23:15 1011 29.85 841 24.83 8.2 46.8 60 1 33.8
23:20 1011 29.85 841 24.83 8.3 47 61 1.3 34.3
23:25 1011 29.85 841 24.83 7.9 46.1 63 1.3 34.3
23:30 1011 29.85 841 24.83 7.5 45.4 65 1.3 34.4
23:35 1011 29.85 841 24.83 7.2 45 64 0.8 33.4
23:40 1012 29.88 841 24.83 7.5 45.5 62 0.8 33.4
23:45 1012 29.88 841 24.83 7.9 46.2 58 0.3 32.5
23:50 1012 29.88 841 24.83 8.5 47.3 57 0.6 33
23:55 1012 29.88 841 24.83 8.5 47.3 61 1.5 34.6
24:00 1012 29.88 841 24.83 7.9 46.2 62 1.1 34